sensor_id;sensor_type;location;lat;lon;timestamp;temperature;humidity
64634;DHT22;51043;52.406;9.690;2023-06-04T00:01:38;9.10;99.90
64634;DHT22;51043;52.406;9.690;2023-06-04T00:04:06;9.00;99.90
64634;DHT22;51043;52.406;9.690;2023-06-04T00:06:34;9.00;99.90
64634;DHT22;51043;52.406;9.690;2023-06-04T00:09:05;9.00;99.90
64634;DHT22;51043;52.406;9.690;2023-06-04T00:11:33;8.90;99.90
64634;DHT22;51043;52.406;9.690;2023-06-04T00:14:02;8.90;99.90
64634;DHT22;51043;52.406;9.690;2023-06-04T00:16:31;8.80;99.90
64634;DHT22;51043;52.406;9.690;2023-06-04T00:19:02;8.80;99.90
64634;DHT22;51043;52.406;9.690;2023-06-04T00:21:30;8.80;99.90
64634;DHT22;51043;52.406;9.690;2023-06-04T00:23:59;8.70;99.90
64634;DHT22;51043;52.406;9.690;2023-06-04T00:26:28;8.70;99.90
64634;DHT22;51043;52.406;9.690;2023-06-04T00:28:57;8.60;99.90
64634;DHT22;51043;52.406;9.690;2023-06-04T00:31:25;8.60;99.90
64634;DHT22;51043;52.406;9.690;2023-06-04T00:33:53;8.50;99.90
64634;DHT22;51043;52.406;9.690;2023-06-04T00:36:22;8.50;99.90
64634;DHT22;51043;52.406;9.690;2023-06-04T00:38:50;8.50;99.90
64634;DHT22;51043;52.406;9.690;2023-06-04T00:41:18;8.40;99.90
64634;DHT22;51043;52.406;9.690;2023-06-04T00:43:48;8.40;99.90
64634;DHT22;51043;52.406;9.690;2023-06-04T00:46:23;8.30;99.90
64634;DHT22;51043;52.406;9.690;2023-06-04T00:48:52;8.30;99.90
64634;DHT22;51043;52.406;9.690;2023-06-04T00:51:22;8.30;99.90
64634;DHT22;51043;52.406;9.690;2023-06-04T00:53:51;8.20;99.90
64634;DHT22;51043;52.406;9.690;2023-06-04T00:56:20;8.10;99.90
64634;DHT22;51043;52.406;9.690;2023-06-04T00:58:49;8.10;99.90
64634;DHT22;51043;52.406;9.690;2023-06-04T01:01:26;8.00;99.90
64634;DHT22;51043;52.406;9.690;2023-06-04T01:03:57;7.90;99.90
64634;DHT22;51043;52.406;9.690;2023-06-04T01:06:35;7.90;99.90
64634;DHT22;51043;52.406;9.690;2023-06-04T01:09:04;7.80;99.90
64634;DHT22;51043;52.406;9.690;2023-06-04T01:11:34;7.90;99.90
64634;DHT22;51043;52.406;9.690;2023-06-04T01:14:06;7.80;99.90
64634;DHT22;51043;52.406;9.690;2023-06-04T01:16:39;7.70;99.90
64634;DHT22;51043;52.406;9.690;2023-06-04T01:19:28;7.70;99.90
64634;DHT22;51043;52.406;9.690;2023-06-04T01:22:10;7.60;99.90
64634;DHT22;51043;52.406;9.690;2023-06-04T01:24:53;7.60;99.90
64634;DHT22;51043;52.406;9.690;2023-06-04T01:27:24;7.50;99.90
64634;DHT22;51043;52.406;9.690;2023-06-04T01:29:57;7.40;99.90
64634;DHT22;51043;52.406;9.690;2023-06-04T01:32:25;7.40;99.90
64634;DHT22;51043;52.406;9.690;2023-06-04T01:34:54;7.40;99.90
64634;DHT22;51043;52.406;9.690;2023-06-04T01:37:23;7.40;99.90
64634;DHT22;51043;52.406;9.690;2023-06-04T01:39:53;7.30;99.90
64634;DHT22;51043;52.406;9.690;2023-06-04T01:42:21;7.30;99.90
64634;DHT22;51043;52.406;9.690;2023-06-04T01:44:49;7.20;99.90
64634;DHT22;51043;52.406;9.690;2023-06-04T01:47:19;7.20;99.90
64634;DHT22;51043;52.406;9.690;2023-06-04T01:49:47;7.20;99.90
64634;DHT22;51043;52.406;9.690;2023-06-04T01:52:16;7.10;99.90
64634;DHT22;51043;52.406;9.690;2023-06-04T01:54:44;7.10;99.90
64634;DHT22;51043;52.406;9.690;2023-06-04T01:57:12;7.00;99.90
64634;DHT22;51043;52.406;9.690;2023-06-04T01:59:41;7.00;99.90
64634;DHT22;51043;52.406;9.690;2023-06-04T02:02:09;7.00;99.90
64634;DHT22;51043;52.406;9.690;2023-06-04T02:04:39;6.90;99.90
64634;DHT22;51043;52.406;9.690;2023-06-04T02:07:08;6.90;99.90
64634;DHT22;51043;52.406;9.690;2023-06-04T02:09:37;6.90;99.90
64634;DHT22;51043;52.406;9.690;2023-06-04T02:12:06;6.90;99.90
64634;DHT22;51043;52.406;9.690;2023-06-04T02:14:39;6.80;99.90
64634;DHT22;51043;52.406;9.690;2023-06-04T02:17:09;6.80;99.90
64634;DHT22;51043;52.406;9.690;2023-06-04T02:19:41;6.80;99.90
64634;DHT22;51043;52.406;9.690;2023-06-04T02:22:11;6.80;99.90
64634;DHT22;51043;52.406;9.690;2023-06-04T02:24:39;6.80;99.90
64634;DHT22;51043;52.406;9.690;2023-06-04T02:27:10;6.80;99.90
64634;DHT22;51043;52.406;9.690;2023-06-04T02:29:39;6.70;99.90
64634;DHT22;51043;52.406;9.690;2023-06-04T02:32:09;6.70;99.90
64634;DHT22;51043;52.406;9.690;2023-06-04T02:34:37;6.70;99.90
64634;DHT22;51043;52.406;9.690;2023-06-04T02:37:07;6.70;99.90
64634;DHT22;51043;52.406;9.690;2023-06-04T02:39:35;6.60;99.90
64634;DHT22;51043;52.406;9.690;2023-06-04T02:42:04;6.60;99.90
64634;DHT22;51043;52.406;9.690;2023-06-04T02:44:32;6.50;99.90
64634;DHT22;51043;52.406;9.690;2023-06-04T02:47:00;6.50;99.90
64634;DHT22;51043;52.406;9.690;2023-06-04T02:49:29;6.50;99.90
64634;DHT22;51043;52.406;9.690;2023-06-04T02:51:57;6.50;99.90
64634;DHT22;51043;52.406;9.690;2023-06-04T02:54:27;6.40;99.90
64634;DHT22;51043;52.406;9.690;2023-06-04T02:56:56;6.40;99.90
64634;DHT22;51043;52.406;9.690;2023-06-04T02:59:25;6.40;99.90
64634;DHT22;51043;52.406;9.690;2023-06-04T03:01:54;6.40;99.90
64634;DHT22;51043;52.406;9.690;2023-06-04T03:04:23;6.40;99.90
64634;DHT22;51043;52.406;9.690;2023-06-04T03:06:52;6.40;99.90
64634;DHT22;51043;52.406;9.690;2023-06-04T03:09:24;6.30;99.90
64634;DHT22;51043;52.406;9.690;2023-06-04T03:11:54;6.30;99.90
64634;DHT22;51043;52.406;9.690;2023-06-04T03:14:23;6.30;99.90
64634;DHT22;51043;52.406;9.690;2023-06-04T03:17:00;6.30;99.90
64634;DHT22;51043;52.406;9.690;2023-06-04T03:19:38;6.30;99.90
64634;DHT22;51043;52.406;9.690;2023-06-04T03:22:08;6.40;99.90
64634;DHT22;51043;52.406;9.690;2023-06-04T03:24:39;6.40;99.90
64634;DHT22;51043;52.406;9.690;2023-06-04T03:27:09;6.40;99.90
64634;DHT22;51043;52.406;9.690;2023-06-04T03:29:40;6.30;99.90
64634;DHT22;51043;52.406;9.690;2023-06-04T03:32:10;6.30;99.90
64634;DHT22;51043;52.406;9.690;2023-06-04T03:34:39;6.30;99.90
64634;DHT22;51043;52.406;9.690;2023-06-04T03:37:08;6.30;99.90
64634;DHT22;51043;52.406;9.690;2023-06-04T03:39:37;6.30;99.90
64634;DHT22;51043;52.406;9.690;2023-06-04T03:42:09;6.30;99.90
64634;DHT22;51043;52.406;9.690;2023-06-04T03:44:38;6.40;99.90
64634;DHT22;51043;52.406;9.690;2023-06-04T03:47:07;6.40;99.90
64634;DHT22;51043;52.406;9.690;2023-06-04T03:49:37;6.40;99.90
64634;DHT22;51043;52.406;9.690;2023-06-04T03:52:05;6.50;99.90
64634;DHT22;51043;52.406;9.690;2023-06-04T03:54:37;6.50;99.90
64634;DHT22;51043;52.406;9.690;2023-06-04T03:57:06;6.60;99.90
64634;DHT22;51043;52.406;9.690;2023-06-04T03:59:36;6.70;99.90
64634;DHT22;51043;52.406;9.690;2023-06-04T04:02:04;6.80;99.90
64634;DHT22;51043;52.406;9.690;2023-06-04T04:04:33;6.90;99.90
64634;DHT22;51043;52.406;9.690;2023-06-04T04:07:01;6.90;99.90
64634;DHT22;51043;52.406;9.690;2023-06-04T04:09:32;7.10;99.90
64634;DHT22;51043;52.406;9.690;2023-06-04T04:12:00;7.10;99.90
64634;DHT22;51043;52.406;9.690;2023-06-04T04:14:28;7.10;99.90
64634;DHT22;51043;52.406;9.690;2023-06-04T04:16:58;7.30;99.90
64634;DHT22;51043;52.406;9.690;2023-06-04T04:19:26;7.30;99.90
64634;DHT22;51043;52.406;9.690;2023-06-04T04:21:55;7.50;99.90
64634;DHT22;51043;52.406;9.690;2023-06-04T04:24:27;7.60;99.90
64634;DHT22;51043;52.406;9.690;2023-06-04T04:27:02;7.70;99.90
64634;DHT22;51043;52.406;9.690;2023-06-04T04:29:32;7.80;99.90
64634;DHT22;51043;52.406;9.690;2023-06-04T04:32:03;7.90;99.90
64634;DHT22;51043;52.406;9.690;2023-06-04T04:34:49;8.10;99.90
64634;DHT22;51043;52.406;9.690;2023-06-04T04:37:20;8.40;99.90
64634;DHT22;51043;52.406;9.690;2023-06-04T04:39:51;8.60;99.90
64634;DHT22;51043;52.406;9.690;2023-06-04T04:42:22;8.70;99.90
64634;DHT22;51043;52.406;9.690;2023-06-04T04:44:50;9.00;99.90
64634;DHT22;51043;52.406;9.690;2023-06-04T04:47:23;9.20;99.90
64634;DHT22;51043;52.406;9.690;2023-06-04T04:49:52;9.40;99.90
64634;DHT22;51043;52.406;9.690;2023-06-04T04:52:20;9.70;99.90
64634;DHT22;51043;52.406;9.690;2023-06-04T04:54:48;9.80;99.90
64634;DHT22;51043;52.406;9.690;2023-06-04T04:57:16;10.10;99.90
64634;DHT22;51043;52.406;9.690;2023-06-04T04:59:48;10.30;99.90
64634;DHT22;51043;52.406;9.690;2023-06-04T05:02:16;10.70;99.90
64634;DHT22;51043;52.406;9.690;2023-06-04T05:04:49;10.90;99.90
64634;DHT22;51043;52.406;9.690;2023-06-04T05:07:17;11.00;99.90
64634;DHT22;51043;52.406;9.690;2023-06-04T05:09:47;11.20;99.90
64634;DHT22;51043;52.406;9.690;2023-06-04T05:12:15;11.40;99.90
64634;DHT22;51043;52.406;9.690;2023-06-04T05:14:43;11.60;99.90
64634;DHT22;51043;52.406;9.690;2023-06-04T05:17:14;11.80;99.90
64634;DHT22;51043;52.406;9.690;2023-06-04T05:19:44;12.00;99.90
64634;DHT22;51043;52.406;9.690;2023-06-04T05:22:16;12.20;99.90
64634;DHT22;51043;52.406;9.690;2023-06-04T05:24:46;12.40;99.90
64634;DHT22;51043;52.406;9.690;2023-06-04T05:27:14;12.60;99.90
64634;DHT22;51043;52.406;9.690;2023-06-04T05:29:42;12.80;99.90
64634;DHT22;51043;52.406;9.690;2023-06-04T05:32:12;13.10;99.90
64634;DHT22;51043;52.406;9.690;2023-06-04T05:34:40;13.10;99.90
64634;DHT22;51043;52.406;9.690;2023-06-04T05:37:09;13.20;99.90
64634;DHT22;51043;52.406;9.690;2023-06-04T05:39:39;13.40;99.90
64634;DHT22;51043;52.406;9.690;2023-06-04T05:42:11;13.60;99.90
64634;DHT22;51043;52.406;9.690;2023-06-04T05:44:42;13.90;99.90
64634;DHT22;51043;52.406;9.690;2023-06-04T05:47:14;14.10;99.90
64634;DHT22;51043;52.406;9.690;2023-06-04T05:49:43;14.30;99.90
64634;DHT22;51043;52.406;9.690;2023-06-04T05:52:12;14.40;99.90
64634;DHT22;51043;52.406;9.690;2023-06-04T05:54:44;14.70;99.90
64634;DHT22;51043;52.406;9.690;2023-06-04T05:57:12;14.90;99.90
64634;DHT22;51043;52.406;9.690;2023-06-04T05:59:40;15.10;99.90
64634;DHT22;51043;52.406;9.690;2023-06-04T06:02:13;15.40;99.90
64634;DHT22;51043;52.406;9.690;2023-06-04T06:04:41;15.60;99.90
64634;DHT22;51043;52.406;9.690;2023-06-04T06:07:10;15.80;98.00
64634;DHT22;51043;52.406;9.690;2023-06-04T06:09:38;16.00;97.80
64634;DHT22;51043;52.406;9.690;2023-06-04T06:12:08;16.20;96.40
64634;DHT22;51043;52.406;9.690;2023-06-04T06:14:38;16.40;96.90
64634;DHT22;51043;52.406;9.690;2023-06-04T06:17:07;16.50;93.00
64634;DHT22;51043;52.406;9.690;2023-06-04T06:19:38;16.60;91.80
64634;DHT22;51043;52.406;9.690;2023-06-04T06:22:07;16.60;91.80
64634;DHT22;51043;52.406;9.690;2023-06-04T06:24:35;16.80;90.40
64634;DHT22;51043;52.406;9.690;2023-06-04T06:27:04;17.00;90.60
64634;DHT22;51043;52.406;9.690;2023-06-04T06:29:34;17.10;90.70
64634;DHT22;51043;52.406;9.690;2023-06-04T06:32:03;17.20;91.70
64634;DHT22;51043;52.406;9.690;2023-06-04T06:34:31;17.30;89.50
64634;DHT22;51043;52.406;9.690;2023-06-04T06:37:00;17.40;83.10
64634;DHT22;51043;52.406;9.690;2023-06-04T06:39:31;17.30;81.50
64634;DHT22;51043;52.406;9.690;2023-06-04T06:42:00;17.50;80.70
64634;DHT22;51043;52.406;9.690;2023-06-04T06:44:37;17.50;81.10
64634;DHT22;51043;52.406;9.690;2023-06-04T06:47:05;17.70;79.90
64634;DHT22;51043;52.406;9.690;2023-06-04T06:49:33;17.80;77.70
64634;DHT22;51043;52.406;9.690;2023-06-04T06:52:02;17.90;77.10
64634;DHT22;51043;52.406;9.690;2023-06-04T06:54:30;18.00;80.10
64634;DHT22;51043;52.406;9.690;2023-06-04T06:56:58;18.10;74.10
64634;DHT22;51043;52.406;9.690;2023-06-04T06:59:29;18.10;73.30
64634;DHT22;51043;52.406;9.690;2023-06-04T07:01:59;18.00;73.60
64634;DHT22;51043;52.406;9.690;2023-06-04T07:04:28;18.00;75.00
64634;DHT22;51043;52.406;9.690;2023-06-04T07:06:56;18.20;76.10
64634;DHT22;51043;52.406;9.690;2023-06-04T07:09:25;18.50;73.30
64634;DHT22;51043;52.406;9.690;2023-06-04T07:11:53;18.90;74.30
64634;DHT22;51043;52.406;9.690;2023-06-04T07:14:21;19.10;71.60
64634;DHT22;51043;52.406;9.690;2023-06-04T07:16:50;19.30;70.50
64634;DHT22;51043;52.406;9.690;2023-06-04T07:19:19;19.40;72.40
64634;DHT22;51043;52.406;9.690;2023-06-04T07:21:48;19.70;66.40
64634;DHT22;51043;52.406;9.690;2023-06-04T07:24:16;19.70;66.30
64634;DHT22;51043;52.406;9.690;2023-06-04T07:26:44;19.80;69.40
64634;DHT22;51043;52.406;9.690;2023-06-04T07:29:13;19.90;67.50
64634;DHT22;51043;52.406;9.690;2023-06-04T07:31:41;20.10;67.80
64634;DHT22;51043;52.406;9.690;2023-06-04T07:34:09;20.30;66.20
64634;DHT22;51043;52.406;9.690;2023-06-04T07:36:39;20.50;62.00
64634;DHT22;51043;52.406;9.690;2023-06-04T07:39:10;20.60;59.90
64634;DHT22;51043;52.406;9.690;2023-06-04T07:41:39;21.20;62.90
64634;DHT22;51043;52.406;9.690;2023-06-04T07:44:07;22.10;58.30
64634;DHT22;51043;52.406;9.690;2023-06-04T07:46:35;23.40;57.00
64634;DHT22;51043;52.406;9.690;2023-06-04T07:49:04;24.30;51.80
64634;DHT22;51043;52.406;9.690;2023-06-04T07:51:32;24.70;49.90
64634;DHT22;51043;52.406;9.690;2023-06-04T07:54:03;25.10;47.60
64634;DHT22;51043;52.406;9.690;2023-06-04T07:56:31;25.20;48.60
64634;DHT22;51043;52.406;9.690;2023-06-04T07:58:59;25.60;46.90
64634;DHT22;51043;52.406;9.690;2023-06-04T08:01:30;26.30;46.20
64634;DHT22;51043;52.406;9.690;2023-06-04T08:03:59;26.80;44.10
64634;DHT22;51043;52.406;9.690;2023-06-04T08:06:28;27.20;41.60
64634;DHT22;51043;52.406;9.690;2023-06-04T08:08:56;27.60;41.00
64634;DHT22;51043;52.406;9.690;2023-06-04T08:11:26;27.70;39.40
64634;DHT22;51043;52.406;9.690;2023-06-04T08:13:54;28.00;40.80
64634;DHT22;51043;52.406;9.690;2023-06-04T08:16:23;28.20;38.50
64634;DHT22;51043;52.406;9.690;2023-06-04T08:18:51;28.20;41.90
64634;DHT22;51043;52.406;9.690;2023-06-04T08:21:25;28.80;39.20
64634;DHT22;51043;52.406;9.690;2023-06-04T08:23:54;29.30;37.60
64634;DHT22;51043;52.406;9.690;2023-06-04T08:26:22;29.50;36.80
64634;DHT22;51043;52.406;9.690;2023-06-04T08:28:53;30.10;35.70
64634;DHT22;51043;52.406;9.690;2023-06-04T08:31:21;30.50;36.20
64634;DHT22;51043;52.406;9.690;2023-06-04T08:33:49;30.70;34.90
64634;DHT22;51043;52.406;9.690;2023-06-04T08:36:19;30.80;34.50
64634;DHT22;51043;52.406;9.690;2023-06-04T08:38:56;31.50;32.80
64634;DHT22;51043;52.406;9.690;2023-06-04T08:41:27;31.80;32.30
64634;DHT22;51043;52.406;9.690;2023-06-04T08:43:58;31.50;31.60
64634;DHT22;51043;52.406;9.690;2023-06-04T08:46:28;32.50;29.30
64634;DHT22;51043;52.406;9.690;2023-06-04T08:49:04;33.10;30.40
64634;DHT22;51043;52.406;9.690;2023-06-04T08:51:35;32.60;28.60
64634;DHT22;51043;52.406;9.690;2023-06-04T08:54:04;32.70;29.60
64634;DHT22;51043;52.406;9.690;2023-06-04T08:56:34;32.90;28.80
64634;DHT22;51043;52.406;9.690;2023-06-04T08:59:05;33.80;27.80
64634;DHT22;51043;52.406;9.690;2023-06-04T09:01:35;34.20;27.70
64634;DHT22;51043;52.406;9.690;2023-06-04T09:04:05;34.30;27.20
64634;DHT22;51043;52.406;9.690;2023-06-04T09:06:34;34.80;26.80
64634;DHT22;51043;52.406;9.690;2023-06-04T09:09:05;34.90;25.80
64634;DHT22;51043;52.406;9.690;2023-06-04T09:11:39;34.30;27.00
64634;DHT22;51043;52.406;9.690;2023-06-04T09:14:12;34.20;26.90
64634;DHT22;51043;52.406;9.690;2023-06-04T09:16:44;34.80;24.70
64634;DHT22;51043;52.406;9.690;2023-06-04T09:19:13;34.80;27.40
64634;DHT22;51043;52.406;9.690;2023-06-04T09:21:49;34.20;26.60
64634;DHT22;51043;52.406;9.690;2023-06-04T09:24:17;34.80;25.90
64634;DHT22;51043;52.406;9.690;2023-06-04T09:26:46;35.40;24.30
64634;DHT22;51043;52.406;9.690;2023-06-04T09:29:16;35.50;26.30
64634;DHT22;51043;52.406;9.690;2023-06-04T09:31:45;35.50;24.80
64634;DHT22;51043;52.406;9.690;2023-06-04T09:34:14;35.10;24.60
64634;DHT22;51043;52.406;9.690;2023-06-04T09:36:45;35.30;24.70
64634;DHT22;51043;52.406;9.690;2023-06-04T09:39:16;35.40;25.60
64634;DHT22;51043;52.406;9.690;2023-06-04T09:41:45;35.20;23.40
64634;DHT22;51043;52.406;9.690;2023-06-04T09:44:26;34.70;23.80
64634;DHT22;51043;52.406;9.690;2023-06-04T09:46:55;34.80;24.80
64634;DHT22;51043;52.406;9.690;2023-06-04T09:49:23;35.50;25.90
64634;DHT22;51043;52.406;9.690;2023-06-04T09:51:51;36.30;24.10
64634;DHT22;51043;52.406;9.690;2023-06-04T09:54:20;36.60;23.70
64634;DHT22;51043;52.406;9.690;2023-06-04T09:56:49;36.50;23.60
64634;DHT22;51043;52.406;9.690;2023-06-04T09:59:17;35.90;24.40
64634;DHT22;51043;52.406;9.690;2023-06-04T10:01:50;35.40;25.40
64634;DHT22;51043;52.406;9.690;2023-06-04T10:04:20;35.70;23.90
64634;DHT22;51043;52.406;9.690;2023-06-04T10:06:50;35.70;25.40
64634;DHT22;51043;52.406;9.690;2023-06-04T10:09:20;35.50;25.30
64634;DHT22;51043;52.406;9.690;2023-06-04T10:11:56;35.60;22.70
64634;DHT22;51043;52.406;9.690;2023-06-04T10:14:36;35.60;24.90
64634;DHT22;51043;52.406;9.690;2023-06-04T10:17:09;36.10;23.90
64634;DHT22;51043;52.406;9.690;2023-06-04T10:19:43;35.90;23.00
64634;DHT22;51043;52.406;9.690;2023-06-04T10:22:12;36.50;22.30
64634;DHT22;51043;52.406;9.690;2023-06-04T10:24:40;36.60;24.40
64634;DHT22;51043;52.406;9.690;2023-06-04T10:27:10;36.90;22.00
64634;DHT22;51043;52.406;9.690;2023-06-04T10:29:40;37.40;22.80
64634;DHT22;51043;52.406;9.690;2023-06-04T10:32:12;37.70;22.10
64634;DHT22;51043;52.406;9.690;2023-06-04T10:34:40;37.60;21.80
64634;DHT22;51043;52.406;9.690;2023-06-04T10:37:19;37.40;21.40
64634;DHT22;51043;52.406;9.690;2023-06-04T10:39:51;37.50;21.30
64634;DHT22;51043;52.406;9.690;2023-06-04T10:42:19;37.40;20.90
64634;DHT22;51043;52.406;9.690;2023-06-04T10:44:50;37.60;21.90
64634;DHT22;51043;52.406;9.690;2023-06-04T10:47:21;37.50;21.20
64634;DHT22;51043;52.406;9.690;2023-06-04T10:49:51;37.80;22.70
64634;DHT22;51043;52.406;9.690;2023-06-04T10:52:20;38.30;20.50
64634;DHT22;51043;52.406;9.690;2023-06-04T10:54:50;38.10;20.60
64634;DHT22;51043;52.406;9.690;2023-06-04T10:57:20;37.00;22.60
64634;DHT22;51043;52.406;9.690;2023-06-04T10:59:54;36.30;23.20
64634;DHT22;51043;52.406;9.690;2023-06-04T11:02:24;36.50;21.60
64634;DHT22;51043;52.406;9.690;2023-06-04T11:05:00;36.30;22.20
64634;DHT22;51043;52.406;9.690;2023-06-04T11:07:42;36.60;23.80
64634;DHT22;51043;52.406;9.690;2023-06-04T11:10:12;36.70;22.70
64634;DHT22;51043;52.406;9.690;2023-06-04T11:12:42;37.60;20.80
64634;DHT22;51043;52.406;9.690;2023-06-04T11:15:11;37.30;20.70
64634;DHT22;51043;52.406;9.690;2023-06-04T11:17:51;37.30;21.40
64634;DHT22;51043;52.406;9.690;2023-06-04T11:20:21;37.10;21.40
64634;DHT22;51043;52.406;9.690;2023-06-04T11:22:53;37.10;22.80
64634;DHT22;51043;52.406;9.690;2023-06-04T11:25:23;37.30;21.80
64634;DHT22;51043;52.406;9.690;2023-06-04T11:27:53;37.60;21.10
64634;DHT22;51043;52.406;9.690;2023-06-04T11:30:23;36.90;22.60
64634;DHT22;51043;52.406;9.690;2023-06-04T11:33:01;36.20;22.00
64634;DHT22;51043;52.406;9.690;2023-06-04T11:35:31;36.40;22.60
64634;DHT22;51043;52.406;9.690;2023-06-04T11:38:00;36.70;21.60
64634;DHT22;51043;52.406;9.690;2023-06-04T11:40:30;36.30;21.60
64634;DHT22;51043;52.406;9.690;2023-06-04T11:42:58;36.40;22.20
64634;DHT22;51043;52.406;9.690;2023-06-04T11:45:27;36.80;23.10
64634;DHT22;51043;52.406;9.690;2023-06-04T11:47:57;37.70;21.00
64634;DHT22;51043;52.406;9.690;2023-06-04T11:50:41;37.70;20.40
64634;DHT22;51043;52.406;9.690;2023-06-04T11:53:10;36.60;21.40
64634;DHT22;51043;52.406;9.690;2023-06-04T11:55:38;36.40;21.70
64634;DHT22;51043;52.406;9.690;2023-06-04T11:58:07;35.80;22.40
64634;DHT22;51043;52.406;9.690;2023-06-04T12:00:35;36.00;24.50
64634;DHT22;51043;52.406;9.690;2023-06-04T12:03:07;36.40;22.30
64634;DHT22;51043;52.406;9.690;2023-06-04T12:05:35;36.70;21.20
64634;DHT22;51043;52.406;9.690;2023-06-04T12:08:06;37.00;22.10
64634;DHT22;51043;52.406;9.690;2023-06-04T12:10:39;37.50;22.00
64634;DHT22;51043;52.406;9.690;2023-06-04T12:13:08;38.40;21.10
64634;DHT22;51043;52.406;9.690;2023-06-04T12:15:37;38.80;20.80
64634;DHT22;51043;52.406;9.690;2023-06-04T12:18:05;39.10;21.70
64634;DHT22;51043;52.406;9.690;2023-06-04T12:20:34;39.30;21.30
64634;DHT22;51043;52.406;9.690;2023-06-04T12:23:04;39.50;22.00
64634;DHT22;51043;52.406;9.690;2023-06-04T12:25:34;39.30;21.30
64634;DHT22;51043;52.406;9.690;2023-06-04T12:28:07;39.90;19.80
64634;DHT22;51043;52.406;9.690;2023-06-04T12:30:44;38.80;19.70
64634;DHT22;51043;52.406;9.690;2023-06-04T12:33:13;38.80;20.00
64634;DHT22;51043;52.406;9.690;2023-06-04T12:35:41;39.00;20.50
64634;DHT22;51043;52.406;9.690;2023-06-04T12:38:11;38.80;20.90
64634;DHT22;51043;52.406;9.690;2023-06-04T12:40:39;38.70;21.20
64634;DHT22;51043;52.406;9.690;2023-06-04T12:43:08;39.00;19.80
64634;DHT22;51043;52.406;9.690;2023-06-04T12:45:37;38.20;22.60
64634;DHT22;51043;52.406;9.690;2023-06-04T12:48:06;38.50;20.20
64634;DHT22;51043;52.406;9.690;2023-06-04T12:50:34;38.70;19.30
64634;DHT22;51043;52.406;9.690;2023-06-04T12:53:02;38.20;21.20
64634;DHT22;51043;52.406;9.690;2023-06-04T12:55:35;38.60;22.40
64634;DHT22;51043;52.406;9.690;2023-06-04T12:58:03;39.30;20.50
64634;DHT22;51043;52.406;9.690;2023-06-04T13:00:32;39.70;20.40
64634;DHT22;51043;52.406;9.690;2023-06-04T13:03:03;39.50;18.70
64634;DHT22;51043;52.406;9.690;2023-06-04T13:05:31;38.20;19.50
64634;DHT22;51043;52.406;9.690;2023-06-04T13:07:59;38.30;21.60
64634;DHT22;51043;52.406;9.690;2023-06-04T13:10:30;38.80;19.90
64634;DHT22;51043;52.406;9.690;2023-06-04T13:12:59;40.20;21.10
64634;DHT22;51043;52.406;9.690;2023-06-04T13:15:28;40.70;19.00
64634;DHT22;51043;52.406;9.690;2023-06-04T13:17:56;41.00;19.40
64634;DHT22;51043;52.406;9.690;2023-06-04T13:20:24;41.10;19.80
64634;DHT22;51043;52.406;9.690;2023-06-04T13:22:53;40.70;20.50
64634;DHT22;51043;52.406;9.690;2023-06-04T13:25:21;40.30;18.60
64634;DHT22;51043;52.406;9.690;2023-06-04T13:27:50;40.70;18.80
64634;DHT22;51043;52.406;9.690;2023-06-04T13:30:19;41.00;18.30
64634;DHT22;51043;52.406;9.690;2023-06-04T13:32:48;40.70;18.00
64634;DHT22;51043;52.406;9.690;2023-06-04T13:35:16;40.00;18.60
64634;DHT22;51043;52.406;9.690;2023-06-04T13:37:44;39.80;21.60
64634;DHT22;51043;52.406;9.690;2023-06-04T13:40:13;39.60;19.00
64634;DHT22;51043;52.406;9.690;2023-06-04T13:42:41;39.30;19.70
64634;DHT22;51043;52.406;9.690;2023-06-04T13:45:10;38.60;19.60
64634;DHT22;51043;52.406;9.690;2023-06-04T13:47:40;39.00;19.60
64634;DHT22;51043;52.406;9.690;2023-06-04T13:50:09;38.50;19.80
64634;DHT22;51043;52.406;9.690;2023-06-04T13:52:38;37.90;20.90
64634;DHT22;51043;52.406;9.690;2023-06-04T13:55:07;37.20;20.10
64634;DHT22;51043;52.406;9.690;2023-06-04T13:57:36;37.30;21.70
64634;DHT22;51043;52.406;9.690;2023-06-04T14:00:09;37.60;20.50
64634;DHT22;51043;52.406;9.690;2023-06-04T14:02:41;38.00;20.30
64634;DHT22;51043;52.406;9.690;2023-06-04T14:05:10;37.60;21.60
64634;DHT22;51043;52.406;9.690;2023-06-04T14:07:38;38.10;21.20
64634;DHT22;51043;52.406;9.690;2023-06-04T14:10:09;38.30;21.40
64634;DHT22;51043;52.406;9.690;2023-06-04T14:12:37;38.80;21.30
64634;DHT22;51043;52.406;9.690;2023-06-04T14:15:08;39.10;20.30
64634;DHT22;51043;52.406;9.690;2023-06-04T14:17:36;39.40;19.40
64634;DHT22;51043;52.406;9.690;2023-06-04T14:20:07;38.30;19.90
64634;DHT22;51043;52.406;9.690;2023-06-04T14:22:36;38.10;22.30
64634;DHT22;51043;52.406;9.690;2023-06-04T14:25:06;37.90;20.50
64634;DHT22;51043;52.406;9.690;2023-06-04T14:27:35;38.70;20.20
64634;DHT22;51043;52.406;9.690;2023-06-04T14:30:05;38.60;21.90
64634;DHT22;51043;52.406;9.690;2023-06-04T14:32:36;38.40;20.60
64634;DHT22;51043;52.406;9.690;2023-06-04T14:35:08;37.70;20.30
64634;DHT22;51043;52.406;9.690;2023-06-04T14:37:36;36.60;21.60
64634;DHT22;51043;52.406;9.690;2023-06-04T14:40:08;35.90;21.20
64634;DHT22;51043;52.406;9.690;2023-06-04T14:42:36;35.70;21.70
64634;DHT22;51043;52.406;9.690;2023-06-04T14:45:06;36.40;22.20
64634;DHT22;51043;52.406;9.690;2023-06-04T14:47:34;36.60;21.60
64634;DHT22;51043;52.406;9.690;2023-06-04T14:50:03;36.30;20.70
64634;DHT22;51043;52.406;9.690;2023-06-04T14:52:33;35.20;22.90
64634;DHT22;51043;52.406;9.690;2023-06-04T14:55:01;35.70;21.70
64634;DHT22;51043;52.406;9.690;2023-06-04T14:57:29;35.40;22.40
64634;DHT22;51043;52.406;9.690;2023-06-04T14:59:57;35.00;23.50
64634;DHT22;51043;52.406;9.690;2023-06-04T15:02:26;34.70;23.10
64634;DHT22;51043;52.406;9.690;2023-06-04T15:04:56;33.90;23.70
64634;DHT22;51043;52.406;9.690;2023-06-04T15:07:24;33.00;23.40
64634;DHT22;51043;52.406;9.690;2023-06-04T15:09:53;31.80;24.40
64634;DHT22;51043;52.406;9.690;2023-06-04T15:12:21;30.70;26.90
64634;DHT22;51043;52.406;9.690;2023-06-04T15:14:49;29.70;26.60
64634;DHT22;51043;52.406;9.690;2023-06-04T15:17:17;28.80;27.90
64634;DHT22;51043;52.406;9.690;2023-06-04T15:19:47;28.10;27.90
64634;DHT22;51043;52.406;9.690;2023-06-04T15:22:15;27.70;29.50
64634;DHT22;51043;52.406;9.690;2023-06-04T15:24:43;27.30;29.90
64634;DHT22;51043;52.406;9.690;2023-06-04T15:27:12;27.00;28.90
64634;DHT22;51043;52.406;9.690;2023-06-04T15:29:40;26.80;31.70
64634;DHT22;51043;52.406;9.690;2023-06-04T15:32:11;26.60;30.20
64634;DHT22;51043;52.406;9.690;2023-06-04T15:34:39;26.50;29.50
64634;DHT22;51043;52.406;9.690;2023-06-04T15:37:08;26.40;29.60
64634;DHT22;51043;52.406;9.690;2023-06-04T15:39:36;26.30;30.40
64634;DHT22;51043;52.406;9.690;2023-06-04T15:42:05;26.30;31.00
64634;DHT22;51043;52.406;9.690;2023-06-04T15:44:36;26.60;29.90
64634;DHT22;51043;52.406;9.690;2023-06-04T15:47:05;27.30;29.60
64634;DHT22;51043;52.406;9.690;2023-06-04T15:49:37;28.90;28.70
64634;DHT22;51043;52.406;9.690;2023-06-04T15:52:07;29.90;27.60